Time;durP1;ratioP1;P1;durP2;ratioP2;P2;SDS_P1;SDS_P2;PMS_P1;PMS_P2;Temp;Humidity;BMP_temperature;BMP_pressure;BME280_temperature;BME280_humidity;BME280_pressure;Samples;Min_cycle;Max_cycle;Signal;HPM_P1;HPM_P2
2022/04/26 03:38:01;;;;;;;9.30;2.80;;;;;;;;;;10404689;28;20021;-72
2022/04/26 03:43:02;;;;;;;8.48;4.32;;;;;;;;;;10378144;28;20493;-72
2022/04/26 03:48:02;;;;;;;13.63;3.10;;;;;;;;;;10369498;28;20486;-71
2022/04/26 03:53:03;;;;;;;11.85;4.82;;;;;;;;;;10360714;28;20025;-71
2022/04/26 03:58:03;;;;;;;15.02;4.15;;;;;;;;;;10362492;28;20468;-71
2022/04/26 04:03:04;;;;;;;18.97;3.50;;;;;;;;;;10384343;28;20488;-71
2022/04/26 04:08:04;;;;;;;11.20;3.55;;;;;;;;;;10388642;28;20437;-72
2022/04/26 04:13:05;;;;;;;20.73;5.03;;;;;;;;;;10383913;28;20029;-72
2022/04/26 04:19:17;;;;;;;21.37;6.00;;;;;;;;;;10397146;28;20048;-75
2022/04/26 04:23:28;;;;;;;15.30;5.97;;;;;;;;;;10372389;28;20319;-71
2022/04/26 04:28:28;;;;;;;16.80;5.55;;;;;;;;;;10406264;28;20021;-72
2022/04/26 04:33:29;;;;;;;19.33;5.20;;;;;;;;;;10368428;28;20567;-73
2022/04/26 04:38:29;;;;;;;19.85;6.03;;;;;;;;;;10368107;28;20537;-72
2022/04/26 04:43:29;;;;;;;22.55;5.80;;;;;;;;;;10368412;28;20409;-72
2022/04/26 04:48:29;;;;;;;31.92;5.45;;;;;;;;;;10363998;28;20588;-73
2022/04/26 04:53:30;;;;;;;22.33;4.68;;;;;;;;;;10363938;28;20030;-73
2022/04/26 04:58:32;;;;;;;19.10;5.63;;;;;;;;;;10364238;28;20022;-72
2022/04/26 05:03:32;;;;;;;19.10;3.95;;;;;;;;;;10383873;28;20168;-72
2022/04/26 05:08:33;;;;;;;12.25;3.40;;;;;;;;;;10408397;28;20424;-72
2022/04/26 05:13:34;;;;;;;9.60;4.03;;;;;;;;;;10407142;28;20044;-71
2022/04/26 05:18:34;;;;;;;11.07;3.00;;;;;;;;;;10408594;28;20057;-71
2022/04/26 05:28:54;;;;;;;8.80;2.72;;;;;;;;;;10387150;28;20470;-71
2022/04/26 05:33:54;;;;;;;18.80;3.33;;;;;;;;;;10406922;28;20493;-71
2022/04/26 05:38:55;;;;;;;12.82;4.10;;;;;;;;;;10406713;28;20035;-72
2022/04/26 05:43:55;;;;;;;14.77;3.73;;;;;;;;;;10407724;28;20033;-73
2022/04/26 05:48:55;;;;;;;12.52;2.85;;;;;;;;;;10406413;28;20033;-76
2022/04/26 05:53:55;;;;;;;7.45;2.35;;;;;;;;;;10407117;28;20029;-76
2022/04/26 05:58:56;;;;;;;5.55;1.90;;;;;;;;;;10407669;28;20567;-73
2022/04/26 06:03:57;;;;;;;12.55;2.22;;;;;;;;;;10406556;28;20419;-72
2022/04/26 06:08:57;;;;;;;8.77;2.08;;;;;;;;;;10407375;28;20025;-71
2022/04/26 06:13:58;;;;;;;3.75;1.50;;;;;;;;;;10405719;28;20063;-71
2022/04/26 06:18:58;;;;;;;8.70;2.30;;;;;;;;;;10389259;28;20102;-79
2022/04/26 06:23:58;;;;;;;10.43;2.00;;;;;;;;;;10406623;28;20052;-71
2022/04/26 06:28:59;;;;;;;14.77;2.78;;;;;;;;;;10405308;28;20014;-71
2022/04/26 06:33:59;;;;;;;13.57;3.10;;;;;;;;;;10406475;28;20121;-72
2022/04/26 06:38:59;;;;;;;10.25;2.60;;;;;;;;;;10406187;28;20496;-75
2022/04/26 06:43:59;;;;;;;10.13;2.60;;;;;;;;;;10404686;28;20451;-72
2022/04/26 06:49:00;;;;;;;7.65;1.80;;;;;;;;;;10407369;28;20031;-71
2022/04/26 06:54:00;;;;;;;9.50;2.50;;;;;;;;;;10387806;28;20087;-74
2022/04/26 06:59:01;;;;;;;11.38;3.08;;;;;;;;;;10404461;28;20400;-72
2022/04/26 07:04:02;;;;;;;5.57;1.43;;;;;;;;;;10405177;28;20113;-70
2022/04/26 07:09:03;;;;;;;2.60;1.30;;;;;;;;;;10403464;28;20028;-73
2022/04/26 07:14:04;;;;;;;10.55;1.50;;;;;;;;;;10403965;28;20032;-73
2022/04/26 07:19:04;;;;;;;20.67;1.83;;;;;;;;;;10403994;28;20076;-70
2022/04/26 07:24:05;;;;;;;4.13;0.95;;;;;;;;;;10403528;28;20026;-72
2022/04/26 07:29:05;;;;;;;9.70;1.60;;;;;;;;;;10403942;28;20013;-72
2022/04/26 07:34:21;;;;;;;10.38;1.20;;;;;;;;;;10404183;28;20045;-74
2022/04/26 07:39:21;;;;;;;7.45;1.27;;;;;;;;;;10411739;28;20032;-73
2022/04/26 07:44:22;;;;;;;6.20;1.20;;;;;;;;;;10411120;28;20031;-71
2022/04/26 07:49:26;;;;;;;8.88;1.42;;;;;;;;;;10411081;28;20013;-72
2022/04/26 07:54:27;;;;;;;6.68;1.05;;;;;;;;;;10395447;28;20030;-72
2022/04/26 07:59:28;;;;;;;3.60;0.90;;;;;;;;;;10410636;28;20021;-72
2022/04/26 08:04:29;;;;;;;5.13;1.15;;;;;;;;;;10411899;28;20026;-72
2022/04/26 08:09:29;;;;;;;5.20;1.10;;;;;;;;;;10410725;28;20021;-71
2022/04/26 08:14:30;;;;;;;8.57;1.67;;;;;;;;;;10411682;28;20025;-72
2022/04/26 08:19:30;;;;;;;8.35;1.40;;;;;;;;;;10409736;28;20912;-72
2022/04/26 08:29:49;;;;;;;6.35;1.70;;;;;;;;;;10411965;28;20021;-72
2022/04/26 08:34:51;;;;;;;16.93;2.57;;;;;;;;;;10409276;28;20469;-75
2022/04/26 08:39:55;;;;;;;11.02;2.20;;;;;;;;;;10410484;28;20021;-78
2022/04/26 08:44:55;;;;;;;7.40;2.08;;;;;;;;;;10408991;28;20534;-76
2022/04/26 08:55:14;;;;;;;5.85;1.70;;;;;;;;;;10410258;28;20025;-71
2022/04/26 09:00:15;;;;;;;15.13;2.13;;;;;;;;;;10408617;28;20544;-71
2022/04/26 09:05:15;;;;;;;15.10;3.17;;;;;;;;;;10407842;28;20858;-78
2022/04/26 09:10:17;;;;;;;6.43;1.52;;;;;;;;;;10409711;28;20030;-73
2022/04/26 09:15:17;;;;;;;13.05;1.60;;;;;;;;;;10391777;28;20033;-75
2022/04/26 09:20:31;;;;;;;5.07;1.50;;;;;;;;;;10390758;28;20481;-73
2022/04/26 09:25:31;;;;;;;15.35;2.15;;;;;;;;;;10407030;28;20323;-72
2022/04/26 09:30:31;;;;;;;4.78;1.35;;;;;;;;;;10390614;28;20020;-77
2022/04/26 09:35:32;;;;;;;11.93;1.58;;;;;;;;;;10406765;28;20018;-70
2022/04/26 09:40:33;;;;;;;8.52;1.50;;;;;;;;;;10406852;28;20021;-71
2022/04/26 09:45:34;;;;;;;12.18;2.05;;;;;;;;;;10406515;28;20025;-72
2022/04/26 09:50:35;;;;;;;8.65;1.25;;;;;;;;;;10407847;28;20394;-76
2022/04/26 09:55:36;;;;;;;11.63;1.20;;;;;;;;;;10406428;28;20024;-73
2022/04/26 10:00:39;;;;;;;7.85;1.42;;;;;;;;;;10389501;28;20021;-72
2022/04/26 10:05:41;;;;;;;8.35;1.05;;;;;;;;;;10405545;28;20021;-72
2022/04/26 10:10:42;;;;;;;11.93;1.83;;;;;;;;;;10406742;28;20063;-73
2022/04/26 10:15:43;;;;;;;9.75;1.17;;;;;;;;;;10405680;28;20544;-72
2022/04/26 10:20:44;;;;;;;3.95;1.20;;;;;;;;;;10405260;28;20127;-80
2022/04/26 10:26:03;;;;;;;4.78;1.00;;;;;;;;;;10405894;28;20041;-73
2022/04/26 10:31:10;;;;;;;5.15;1.10;;;;;;;;;;10404889;28;20029;-71
2022/04/26 10:36:35;;;;;;;5.35;1.30;;;;;;;;;;10406230;28;20091;-74
2022/04/26 10:41:46;;;;;;;11.43;1.40;;;;;;;;;;10405692;28;20021;-72
2022/04/26 10:46:53;;;;;;;7.22;0.88;;;;;;;;;;10405737;28;20268;-71
2022/04/26 10:51:56;;;;;;;7.00;1.70;;;;;;;;;;10404250;28;20025;-70
2022/04/26 10:56:56;;;;;;;3.65;0.80;;;;;;;;;;10403673;28;20036;-74
2022/04/26 11:01:57;;;;;;;5.22;1.08;;;;;;;;;;10403943;28;20026;-72
2022/04/26 11:07:09;;;;;;;7.70;1.40;;;;;;;;;;10403974;28;20025;-71
2022/04/26 11:12:09;;;;;;;12.75;1.45;;;;;;;;;;10403199;28;20536;-72
2022/04/26 11:17:10;;;;;;;9.30;2.40;;;;;;;;;;10403721;28;20148;-72
2022/04/26 11:22:13;;;;;;;14.55;1.38;;;;;;;;;;10403912;28;20026;-70
2022/04/26 11:32:43;;;;;;;13.15;1.52;;;;;;;;;;10405069;28;20022;-70
2022/04/26 11:37:43;;;;;;;5.90;1.50;;;;;;;;;;10404517;28;20033;-77
2022/04/26 11:42:44;;;;;;;11.23;1.35;;;;;;;;;;10402751;28;20036;-71
2022/04/26 11:47:48;;;;;;;10.35;2.03;;;;;;;;;;10403105;28;20021;-71
2022/04/26 11:52:50;;;;;;;5.38;1.40;;;;;;;;;;10403592;28;20068;-71
2022/04/26 11:57:50;;;;;;;2.55;1.00;;;;;;;;;;10402090;28;20120;-72
2022/04/26 12:02:51;;;;;;;2.28;0.63;;;;;;;;;;10402771;28;20470;-72
2022/04/26 12:07:51;;;;;;;1.93;1.13;;;;;;;;;;10402748;28;20421;-72
2022/04/26 12:12:56;;;;;;;3.25;0.93;;;;;;;;;;10402909;28;20025;-74
2022/04/26 12:18:03;;;;;;;5.32;1.70;;;;;;;;;;10401987;28;20045;-72
2022/04/26 12:23:04;;;;;;;3.05;1.20;;;;;;;;;;10389116;28;20063;-71
2022/04/26 12:28:06;;;;;;;2.65;1.30;;;;;;;;;;10393051;28;20033;-75
2022/04/26 12:33:06;;;;;;;7.30;2.22;;;;;;;;;;10411176;28;20772;-73
2022/04/26 12:38:10;;;;;;;4.20;1.70;;;;;;;;;;10420694;28;20025;-74
2022/04/26 12:43:29;;;;;;;4.55;1.00;;;;;;;;;;10433859;28;20068;-73
2022/04/26 12:53:50;;;;;;;5.32;1.40;;;;;;;;;;10449861;28;20029;-71
2022/04/26 12:58:50;;;;;;;5.43;1.45;;;;;;;;;;10448992;28;20111;-74
2022/04/26 13:03:51;;;;;;;4.28;1.33;;;;;;;;;;10451258;28;20051;-72
2022/04/26 13:08:51;;;;;;;5.72;1.27;;;;;;;;;;10450052;28;20025;-71
2022/04/26 13:13:52;;;;;;;6.40;1.33;;;;;;;;;;10439449;28;20021;-70
2022/04/26 13:18:52;;;;;;;13.68;1.27;;;;;;;;;;10466781;28;20052;-71
2022/04/26 13:23:54;;;;;;;11.25;1.55;;;;;;;;;;10457918;28;20076;-70
2022/04/26 13:28:55;;;;;;;6.43;1.80;;;;;;;;;;10439815;28;20417;-71
2022/04/26 13:33:56;;;;;;;1.85;1.20;;;;;;;;;;10441888;28;20025;-72
2022/04/26 13:38:56;;;;;;;4.28;1.70;;;;;;;;;;10432685;28;20024;-70
2022/04/26 13:43:57;;;;;;;4.45;1.42;;;;;;;;;;10439688;28;20061;-70
2022/04/26 13:48:57;;;;;;;7.17;1.07;;;;;;;;;;10446425;28;20040;-71
2022/04/26 13:53:57;;;;;;;4.50;1.60;;;;;;;;;;10436879;28;20291;-71
2022/04/26 13:58:58;;;;;;;6.05;2.05;;;;;;;;;;10431762;28;20021;-72
2022/04/26 14:03:58;;;;;;;9.65;1.85;;;;;;;;;;10451970;28;20037;-72
2022/04/26 14:08:58;;;;;;;7.50;1.67;;;;;;;;;;10464272;28;20032;-72
2022/04/26 14:24:36;;;;;;;3.97;1.38;;;;;;;;;;10449365;28;20487;-72
2022/04/26 14:29:37;;;;;;;7.20;1.90;;;;;;;;;;10423096;28;20228;-74
2022/04/26 14:34:38;;;;;;;8.20;2.28;;;;;;;;;;10440355;28;20055;-71
2022/04/26 14:39:39;;;;;;;7.72;2.50;;;;;;;;;;10416478;28;20029;-73
2022/04/26 14:44:39;;;;;;;5.63;1.95;;;;;;;;;;10436453;28;20033;-73
2022/04/26 14:49:39;;;;;;;2.17;1.53;;;;;;;;;;10422205;28;20084;-73
2022/04/26 14:54:40;;;;;;;7.60;1.60;;;;;;;;;;10436614;28;20466;-76
2022/04/26 14:59:46;;;;;;;8.32;1.60;;;;;;;;;;10433538;28;20025;-74
2022/04/26 15:04:47;;;;;;;2.85;1.20;;;;;;;;;;10439323;28;20492;-73
2022/04/26 15:09:52;;;;;;;4.88;1.40;;;;;;;;;;10439501;28;20055;-71
2022/04/26 15:20:13;;;;;;;2.13;1.00;;;;;;;;;;10444187;28;20522;-74
2022/04/26 15:25:14;;;;;;;5.35;1.65;;;;;;;;;;10462893;28;20119;-71
2022/04/26 15:30:14;;;;;;;1.90;1.33;;;;;;;;;;10442307;28;20025;-71
2022/04/26 15:35:14;;;;;;;3.28;1.20;;;;;;;;;;10427848;28;20021;-72
2022/04/26 15:40:15;;;;;;;5.35;1.40;;;;;;;;;;10436074;28;20415;-72
2022/04/26 15:45:15;;;;;;;2.40;1.40;;;;;;;;;;10430883;28;20538;-71
2022/04/26 15:50:15;;;;;;;5.07;1.42;;;;;;;;;;10429723;28;20032;-71
2022/04/26 15:55:16;;;;;;;2.10;1.20;;;;;;;;;;10437302;28;20028;-71
2022/04/26 16:00:18;;;;;;;6.40;1.50;;;;;;;;;;10453666;28;20423;-70
2022/04/26 16:05:18;;;;;;;3.13;0.95;;;;;;;;;;10451882;28;20028;-74
2022/04/26 16:20:56;;;;;;;5.28;1.65;;;;;;;;;;10467390;28;20461;-74
2022/04/26 16:26:01;;;;;;;6.40;1.70;;;;;;;;;;10449372;28;20492;-70
2022/04/26 16:31:03;;;;;;;7.75;2.25;;;;;;;;;;10451994;28;20036;-74
2022/04/26 16:36:04;;;;;;;11.15;2.53;;;;;;;;;;10467813;28;20060;-72
2022/04/26 16:41:05;;;;;;;10.52;2.22;;;;;;;;;;10464980;28;20084;-73
2022/04/26 16:46:06;;;;;;;9.68;3.25;;;;;;;;;;10443139;28;20029;-70
2022/04/26 16:51:06;;;;;;;6.90;2.88;;;;;;;;;;10462773;28;20025;-71
2022/04/26 16:56:06;;;;;;;6.93;3.95;;;;;;;;;;10446337;28;20507;-71
2022/04/26 17:01:07;;;;;;;8.65;3.08;;;;;;;;;;10454269;28;20431;-72
2022/04/26 17:06:07;;;;;;;4.68;2.80;;;;;;;;;;10446122;28;20570;-69
2022/04/26 17:16:27;;;;;;;4.07;2.92;;;;;;;;;;10461017;28;20057;-71
2022/04/26 17:21:27;;;;;;;5.93;3.20;;;;;;;;;;10443778;28;20017;-70
2022/04/26 17:26:28;;;;;;;7.20;2.27;;;;;;;;;;10426984;28;20024;-69
2022/04/26 17:31:28;;;;;;;4.15;2.42;;;;;;;;;;10426554;28;20275;-69
2022/04/26 17:36:32;;;;;;;4.73;3.10;;;;;;;;;;10445707;28;20107;-70
2022/04/26 17:41:33;;;;;;;2.72;2.15;;;;;;;;;;10431634;28;20013;-70
2022/04/26 17:46:34;;;;;;;10.93;2.50;;;;;;;;;;10440303;28;20488;-71
2022/04/26 17:51:34;;;;;;;4.45;2.15;;;;;;;;;;10432002;28;20029;-71
2022/04/26 17:56:35;;;;;;;3.47;2.20;;;;;;;;;;10432501;28;20025;-70
2022/04/26 18:01:35;;;;;;;5.45;2.33;;;;;;;;;;10426401;28;20025;-70
2022/04/26 18:06:35;;;;;;;4.85;1.90;;;;;;;;;;10454516;28;20025;-70
2022/04/26 18:11:36;;;;;;;4.27;1.87;;;;;;;;;;10430873;28;20035;-70
2022/04/26 18:16:36;;;;;;;3.87;2.13;;;;;;;;;;10448471;28;20111;-71
2022/04/26 18:21:36;;;;;;;5.90;3.38;;;;;;;;;;10419596;28;20705;-74
2022/04/26 18:26:38;;;;;;;8.17;4.33;;;;;;;;;;10449460;28;20112;-70
2022/04/26 18:31:41;;;;;;;7.25;3.25;;;;;;;;;;10482216;28;20028;-70
2022/04/26 18:36:41;;;;;;;3.67;2.67;;;;;;;;;;10446754;28;20016;-70
2022/04/26 18:41:41;;;;;;;5.75;2.83;;;;;;;;;;10430217;28;20009;-69
2022/04/26 18:46:42;;;;;;;4.83;2.87;;;;;;;;;;10440413;28;20710;-70
2022/04/26 18:51:43;;;;;;;6.00;3.37;;;;;;;;;;10449177;28;20094;-70
2022/04/26 18:56:43;;;;;;;4.47;2.10;;;;;;;;;;10451155;28;20021;-75
2022/04/26 19:01:43;;;;;;;2.47;2.23;;;;;;;;;;10419494;28;20024;-70
2022/04/26 19:06:44;;;;;;;4.63;3.55;;;;;;;;;;10422383;28;20035;-70
2022/04/26 19:17:03;;;;;;;8.57;2.95;;;;;;;;;;10441543;28;20081;-76
2022/04/26 19:22:04;;;;;;;3.95;2.10;;;;;;;;;;10446519;28;20025;-74
2022/04/26 19:27:04;;;;;;;5.07;1.98;;;;;;;;;;10444304;28;20025;-70
2022/04/26 19:32:04;;;;;;;9.75;3.28;;;;;;;;;;10456648;28;20694;-71
2022/04/26 19:37:04;;;;;;;2.53;2.30;;;;;;;;;;10450524;28;20040;-69
2022/04/26 19:42:05;;;;;;;6.07;3.25;;;;;;;;;;10435752;28;20262;-71
2022/04/26 19:47:05;;;;;;;9.00;2.60;;;;;;;;;;10443494;28;20483;-74
2022/04/26 19:52:05;;;;;;;3.45;2.45;;;;;;;;;;10454764;28;20494;-68
2022/04/26 19:57:06;;;;;;;10.90;2.60;;;;;;;;;;10422256;28;20455;-70
2022/04/26 20:02:06;;;;;;;4.75;2.47;;;;;;;;;;10438393;28;20013;-71
2022/04/26 20:07:06;;;;;;;2.00;1.80;;;;;;;;;;10430846;28;20032;-69
2022/04/26 20:12:07;;;;;;;1.90;1.75;;;;;;;;;;10442100;28;20805;-73
2022/04/26 20:17:07;;;;;;;9.52;2.50;;;;;;;;;;10440501;28;20037;-69
2022/04/26 20:22:07;;;;;;;4.18;2.47;;;;;;;;;;10457638;28;20436;-70
2022/04/26 20:32:27;;;;;;;5.22;2.58;;;;;;;;;;10459810;28;20028;-71
2022/04/26 20:37:27;;;;;;;4.38;2.60;;;;;;;;;;10440195;28;20012;-70
2022/04/26 20:42:27;;;;;;;4.00;3.00;;;;;;;;;;10436826;28;20017;-70
2022/04/26 20:47:28;;;;;;;6.97;2.60;;;;;;;;;;10439203;28;20033;-69
2022/04/26 20:52:30;;;;;;;19.97;11.23;;;;;;;;;;10437295;28;20089;-75
2022/04/26 20:57:30;;;;;;;5.05;2.90;;;;;;;;;;10433847;28;20020;-70
2022/04/26 21:02:30;;;;;;;5.78;3.15;;;;;;;;;;10453627;28;20431;-70
2022/04/26 21:07:31;;;;;;;9.90;2.93;;;;;;;;;;10439049;28;20032;-70
2022/04/26 21:17:41;;;;;;;9.82;3.00;;;;;;;;;;10414485;28;20052;-69
2022/04/26 21:22:41;;;;;;;2.70;2.50;;;;;;;;;;10410734;28;20029;-70
2022/04/26 21:27:42;;;;;;;3.50;2.60;;;;;;;;;;10418828;28;20408;-75
2022/04/26 21:32:43;;;;;;;5.70;2.58;;;;;;;;;;10396415;28;20104;-70
2022/04/26 21:37:43;;;;;;;6.10;2.63;;;;;;;;;;10417363;28;20029;-70
2022/04/26 21:42:44;;;;;;;5.87;3.00;;;;;;;;;;10393612;28;20022;-70
2022/04/26 21:47:44;;;;;;;2.85;2.30;;;;;;;;;;10495207;23;20302;-71
2022/04/26 21:52:44;;;;;;;4.70;2.30;;;;;;;;;;10516969;28;20024;-74
2022/04/26 21:57:45;;;;;;;5.87;2.30;;;;;;;;;;10531975;28;20157;-75
2022/04/26 22:02:48;;;;;;;7.15;2.58;;;;;;;;;;10529236;27;20027;-71
2022/04/26 22:07:49;;;;;;;7.07;2.80;;;;;;;;;;10562550;27;20027;-70
2022/04/26 22:12:49;;;;;;;8.55;2.85;;;;;;;;;;10560835;27;20027;-70
2022/04/26 22:17:50;;;;;;;5.90;2.30;;;;;;;;;;10580153;27;20437;-70
2022/04/26 22:22:50;;;;;;;3.53;2.47;;;;;;;;;;10563298;27;20035;-70
2022/04/26 22:27:51;;;;;;;5.43;2.95;;;;;;;;;;10563811;27;20031;-73
2022/04/26 22:32:59;;;;;;;4.72;3.05;;;;;;;;;;10559551;27;20084;-71
2022/04/26 22:37:59;;;;;;;3.05;2.30;;;;;;;;;;10578288;27;20047;-70
2022/04/26 22:42:59;;;;;;;4.28;3.00;;;;;;;;;;10561505;27;20172;-70
2022/04/26 22:48:00;;;;;;;4.53;3.13;;;;;;;;;;10560145;27;20043;-70
2022/04/26 22:53:00;;;;;;;6.70;2.80;;;;;;;;;;10556239;27;20030;-70
2022/04/26 22:58:02;;;;;;;4.07;2.80;;;;;;;;;;10559540;27;20080;-69
2022/04/26 23:03:02;;;;;;;5.97;2.80;;;;;;;;;;10574256;27;20032;-74
2022/04/26 23:08:03;;;;;;;2.88;2.20;;;;;;;;;;10586214;27;20031;-73
2022/04/26 23:13:03;;;;;;;4.97;2.90;;;;;;;;;;10553922;27;20491;-71
2022/04/26 23:18:03;;;;;;;8.75;4.70;;;;;;;;;;10572622;27;20023;-71
2022/04/26 23:23:04;;;;;;;6.10;3.10;;;;;;;;;;10573923;28;20088;-72
2022/04/26 23:28:04;;;;;;;6.65;3.33;;;;;;;;;;10561926;28;20413;-72
2022/04/26 23:33:05;;;;;;;5.97;3.00;;;;;;;;;;10551356;28;20035;-70
2022/04/26 23:38:09;;;;;;;10.20;3.67;;;;;;;;;;10561535;28;20115;-71
2022/04/26 23:43:11;;;;;;;4.43;2.97;;;;;;;;;;10589155;28;20027;-70
2022/04/26 23:48:11;;;;;;;6.28;3.15;;;;;;;;;;10586234;27;20078;-70
2022/04/26 23:53:12;;;;;;;6.90;3.35;;;;;;;;;;10552979;28;20043;-70
2022/04/26 23:58:12;;;;;;;3.83;2.72;;;;;;;;;;10578696;28;20495;-72
